Time;durP1;ratioP1;P1;durP2;ratioP2;P2;SDS_P1;SDS_P2;PMS_P1;PMS_P2;Temp;Humidity;BMP_temperature;BMP_pressure;BME280_temperature;BME280_humidity;BME280_pressure;Samples;Min_cycle;Max_cycle;Signal;HPM_P1;HPM_P2
2023/05/15 00:00:19;;;;;;;24.63;22.17;;;;;;;19.89;47.12;101702.97;5063120;28;20037;-73
2023/05/15 00:02:44;;;;;;;23.37;20.57;;;;;;;19.78;47.16;101693.59;5051725;28;20602;-75
2023/05/15 00:05:09;;;;;;;1341.23;673.77;;;;;;;19.38;48.65;101697.59;5049285;28;20085;-75
2023/05/15 00:07:36;;;;;;;1999.90;999.90;;;;;;;19.13;48.84;101697.53;5064001;28;20036;-75
2023/05/15 00:10:02;;;;;;;1999.90;999.90;;;;;;;19.74;47.33;101689.31;5060949;28;20029;-75
2023/05/15 00:12:27;;;;;;;1999.90;999.90;;;;;;;19.67;47.52;101682.47;5062184;28;20031;-75
2023/05/15 00:14:53;;;;;;;1999.90;999.90;;;;;;;19.78;48.44;101688.28;5057320;28;20474;-75
2023/05/15 00:17:18;;;;;;;1999.90;999.90;;;;;;;19.72;48.00;101685.84;5052364;28;20593;-75
2023/05/15 00:19:44;;;;;;;1999.90;999.90;;;;;;;20.19;46.75;101673.63;5068380;28;20155;-71
2023/05/15 00:22:09;;;;;;;1999.90;999.90;;;;;;;20.25;46.77;101674.25;5049143;28;20029;-75
2023/05/15 00:24:35;;;;;;;1999.90;999.90;;;;;;;20.16;46.75;101672.78;5048028;28;20079;-75
2023/05/15 00:27:00;;;;;;;24.27;21.83;;;;;;;20.10;46.76;101670.38;5053162;28;20058;-73
2023/05/15 00:29:26;;;;;;;25.10;22.67;;;;;;;20.14;46.79;101661.38;5051437;28;20067;-73
2023/05/15 00:31:51;;;;;;;22.50;20.10;;;;;;;20.36;46.54;101651.72;5048493;28;20060;-73
2023/05/15 00:34:16;;;;;;;1341.13;673.70;;;;;;;20.45;46.09;101662.88;5048250;28;20115;-73
2023/05/15 00:36:42;;;;;;;1999.90;999.90;;;;;;;19.97;46.69;101654.03;5049173;28;20031;-72
2023/05/15 00:39:08;;;;;;;1999.90;999.90;;;;;;;20.04;46.58;101654.66;5063536;28;20107;-73
2023/05/15 00:41:35;;;;;;;1999.90;999.90;;;;;;;20.31;45.94;101651.91;5067238;28;20525;-73
2023/05/15 00:44:01;;;;;;;1999.90;999.90;;;;;;;20.44;45.79;101653.19;5070541;28;20036;-73
2023/05/15 00:46:29;;;;;;;1999.90;999.90;;;;;;;20.42;45.24;101664.78;5058967;28;20050;-73
2023/05/15 00:48:56;;;;;;;1999.90;999.90;;;;;;;20.34;44.93;101657.09;5066302;28;20075;-72
2023/05/15 00:51:22;;;;;;;1999.90;999.90;;;;;;;20.08;45.97;101661.59;5052773;28;20025;-75
2023/05/15 00:53:49;;;;;;;1999.90;999.90;;;;;;;19.89;46.38;101655.22;5057999;28;20036;-75
2023/05/15 00:56:15;;;;;;;1999.90;999.90;;;;;;;20.02;46.27;101651.22;5069638;28;20416;-75
2023/05/15 00:58:42;;;;;;;1999.90;999.90;;;;;;;20.03;45.83;101647.66;5052411;28;20021;-75
2023/05/15 01:01:07;;;;;;;1999.90;999.90;;;;;;;20.11;46.63;101653.53;5057323;28;20024;-75
2023/05/15 01:03:33;;;;;;;1999.90;999.90;;;;;;;19.93;47.70;101652.41;5065603;28;20024;-75
2023/05/15 01:05:58;;;;;;;1999.90;999.90;;;;;;;19.98;46.35;101644.28;5052410;28;20489;-75
2023/05/15 01:08:34;;;;;;;1999.90;999.90;;;;;;;20.14;45.87;101650.78;5060392;28;20115;-74
2023/05/15 01:11:03;;;;;;;1999.90;999.90;;;;;;;20.31;46.64;101651.91;5072136;28;20056;-75
2023/05/15 01:13:28;;;;;;;1999.90;999.90;;;;;;;19.85;46.41;101653.63;5069270;28;20480;-75
2023/05/15 01:15:54;;;;;;;1999.90;999.90;;;;;;;19.91;46.85;101653.41;5060997;28;20033;-75
2023/05/15 01:18:20;;;;;;;1999.90;999.90;;;;;;;20.03;46.89;101646.78;5057754;28;20032;-75
2023/05/15 01:20:54;;;;;;;1999.90;999.90;;;;;;;20.39;45.04;101649.84;5054968;28;20103;-75
2023/05/15 01:23:56;;;;;;;1999.90;999.90;;;;;;;20.06;46.74;101655.50;5056257;28;20111;-75
2023/05/15 01:26:32;;;;;;;1999.90;999.90;;;;;;;20.08;46.23;101648.31;5050004;28;20481;-75
2023/05/15 01:29:08;;;;;;;1999.90;999.90;;;;;;;20.49;45.17;101648.53;5067215;28;20116;-75
2023/05/15 01:31:36;;;;;;;1999.90;999.90;;;;;;;20.53;44.97;101645.78;5065824;28;20081;-75
2023/05/15 01:34:05;;;;;;;1999.90;999.90;;;;;;;19.91;45.76;101645.44;5063089;28;20119;-75
2023/05/15 01:36:52;;;;;;;1999.90;999.90;;;;;;;20.13;46.17;101649.03;5051486;28;20027;-75
2023/05/15 01:39:22;;;;;;;1999.90;999.90;;;;;;;20.20;45.60;101643.50;5050471;28;20025;-75
2023/05/15 01:41:55;;;;;;;1999.90;999.90;;;;;;;20.32;45.71;101632.44;5063065;28;20063;-75
2023/05/15 01:44:29;;;;;;;1999.90;999.90;;;;;;;20.68;43.93;101631.94;5054755;28;20116;-74
2023/05/15 01:46:58;;;;;;;1999.90;999.90;;;;;;;20.02;45.55;101637.06;5061571;28;20036;-74
2023/05/15 01:49:26;;;;;;;1999.90;999.90;;;;;;;20.53;44.22;101629.84;5054098;28;20448;-75
2023/05/15 01:52:00;;;;;;;1999.90;999.90;;;;;;;20.18;45.38;101635.56;5058072;28;20024;-74
2023/05/15 01:54:28;;;;;;;1999.90;999.90;;;;;;;20.33;44.94;101639.44;5051212;28;20484;-75
2023/05/15 01:56:55;;;;;;;1999.90;999.90;;;;;;;19.54;46.06;101638.78;5052672;28;20032;-74
2023/05/15 01:59:21;;;;;;;1999.90;999.90;;;;;;;20.31;44.10;101638.66;5050281;28;20564;-74
2023/05/15 02:01:47;;;;;;;1999.90;999.90;;;;;;;19.87;45.06;101631.41;5051242;28;20036;-74
2023/05/15 02:04:14;;;;;;;1999.90;999.90;;;;;;;19.76;46.00;101644.19;5066456;28;20131;-74
2023/05/15 02:06:39;;;;;;;1999.90;999.90;;;;;;;19.80;46.22;101646.69;5066369;28;20494;-75
2023/05/15 02:09:06;;;;;;;1999.90;999.90;;;;;;;19.80;45.96;101638.72;5072028;28;20116;-75
2023/05/15 02:11:32;;;;;;;1999.90;999.90;;;;;;;19.39;47.12;101635.72;5052895;28;20021;-74
2023/05/15 02:13:59;;;;;;;1999.90;999.90;;;;;;;19.53;46.12;101634.38;5050986;28;20060;-73
2023/05/15 02:16:24;;;;;;;1999.90;999.90;;;;;;;19.43;47.28;101632.03;5054043;28;20043;-75
2023/05/15 02:18:51;;;;;;;1999.90;999.90;;;;;;;19.67;46.88;101640.94;5067365;28;20036;-74
2023/05/15 02:21:16;;;;;;;1999.90;999.90;;;;;;;19.25;47.11;101638.84;5065950;28;20396;-74
2023/05/15 02:23:42;;;;;;;1999.90;999.90;;;;;;;19.34;47.68;101632.34;5054997;28;20066;-74
2023/05/15 02:26:22;;;;;;;1999.90;999.90;;;;;;;19.66;47.12;101633.03;5050391;28;20025;-74
2023/05/15 02:28:57;;;;;;;1999.90;999.90;;;;;;;19.29;47.41;101626.38;5062609;28;20956;-74
2023/05/15 02:31:36;;;;;;;1999.90;999.90;;;;;;;19.01;48.03;101627.25;5053003;28;20036;-74
2023/05/15 02:34:15;;;;;;;1999.90;999.90;;;;;;;19.66;47.09;101619.78;5052458;28;20029;-75
2023/05/15 02:36:45;;;;;;;1999.90;999.90;;;;;;;19.55;46.74;101625.47;5063533;28;20032;-74
2023/05/15 02:39:14;;;;;;;1999.90;999.90;;;;;;;19.92;46.05;101628.59;5066582;28;20063;-75
2023/05/15 02:41:40;;;;;;;1999.90;999.90;;;;;;;19.28;46.95;101627.28;5058630;28;20485;-75
2023/05/15 02:44:07;;;;;;;1999.90;999.90;;;;;;;18.92;47.90;101631.09;5056879;28;20039;-74
2023/05/15 02:46:33;;;;;;;1999.90;999.90;;;;;;;19.30;47.51;101623.66;5063914;28;20097;-75
2023/05/15 02:48:59;;;;;;;1999.90;999.90;;;;;;;19.36;46.72;101619.94;5056104;28;20116;-74
2023/05/15 02:51:25;;;;;;;1999.90;999.90;;;;;;;19.66;46.54;101625.09;5066308;28;21268;-75
2023/05/15 02:53:51;;;;;;;1999.90;999.90;;;;;;;19.77;45.45;101630.84;5051585;28;20104;-74
2023/05/15 02:56:16;;;;;;;1999.90;999.90;;;;;;;19.58;46.27;101619.19;5064037;28;20060;-75
2023/05/15 02:58:41;;;;;;;1999.90;999.90;;;;;;;19.61;46.44;101613.75;5051208;28;20033;-75
2023/05/15 03:01:07;;;;;;;1999.90;999.90;;;;;;;20.05;45.78;101608.66;5061106;28;20024;-75
2023/05/15 03:03:32;;;;;;;1999.90;999.90;;;;;;;20.04;44.70;101612.22;5069471;28;20373;-75
2023/05/15 03:05:59;;;;;;;1999.90;999.90;;;;;;;20.03;45.41;101609.63;5062008;28;20037;-75
2023/05/15 03:08:25;;;;;;;1999.90;999.90;;;;;;;19.45;46.21;101619.63;5066115;28;20020;-74
2023/05/15 03:10:50;;;;;;;1999.90;999.90;;;;;;;20.20;44.43;101607.19;5048856;28;20051;-74
2023/05/15 03:13:16;;;;;;;1999.90;999.90;;;;;;;20.05;45.19;101611.31;5070013;28;20522;-74
2023/05/15 03:15:43;;;;;;;1999.90;999.90;;;;;;;19.61;45.93;101608.47;5069003;28;20032;-75
2023/05/15 03:18:09;;;;;;;1999.90;999.90;;;;;;;19.92;44.85;101607.38;5069207;28;20032;-75
2023/05/15 03:20:34;;;;;;;1999.90;999.90;;;;;;;20.00;44.61;101602.63;5069322;28;20036;-74
2023/05/15 03:23:00;;;;;;;1999.90;999.90;;;;;;;19.79;45.07;101602.47;5056642;28;20416;-75
2023/05/15 03:25:25;;;;;;;1999.90;999.90;;;;;;;19.79;44.93;101607.78;5062193;28;20463;-74
2023/05/15 03:27:50;;;;;;;1999.90;999.90;;;;;;;19.86;45.43;101612.91;5056284;28;20068;-74
2023/05/15 03:30:16;;;;;;;1999.90;999.90;;;;;;;19.50;46.11;101617.66;5049259;28;20492;-75
2023/05/15 03:32:41;;;;;;;1999.90;999.90;;;;;;;19.69;45.93;101611.69;5048535;28;20477;-73
2023/05/15 03:35:07;;;;;;;1999.90;999.90;;;;;;;19.23;46.61;101613.31;5049712;28;20078;-74
2023/05/15 03:37:32;;;;;;;1999.90;999.90;;;;;;;19.36;47.05;101617.28;5056706;28;20057;-74
2023/05/15 03:39:57;;;;;;;1999.90;999.90;;;;;;;19.15;46.83;101617.09;5062407;28;20032;-74
2023/05/15 03:42:23;;;;;;;1999.90;999.90;;;;;;;19.34;46.80;101627.03;5049460;28;20344;-74
2023/05/15 03:44:49;;;;;;;1999.90;999.90;;;;;;;19.25;46.23;101611.47;5049698;28;20052;-74
2023/05/15 03:47:15;;;;;;;1999.90;999.90;;;;;;;19.13;47.68;101616.25;5052021;28;20090;-74
2023/05/15 03:49:41;;;;;;;1999.90;999.90;;;;;;;19.26;46.73;101623.78;5059856;28;20024;-74
2023/05/15 03:52:06;;;;;;;1999.90;999.90;;;;;;;19.01;48.10;101624.63;5064600;28;20029;-74
2023/05/15 03:54:32;;;;;;;1999.90;999.90;;;;;;;18.91;48.53;101633.78;5050792;28;20056;-74
2023/05/15 03:56:57;;;;;;;1999.90;999.90;;;;;;;18.55;49.56;101634.00;5068848;28;20024;-74
2023/05/15 03:59:23;;;;;;;1999.90;999.90;;;;;;;19.78;47.13;101632.59;5068434;28;20439;-74
2023/05/15 04:01:48;;;;;;;1999.90;999.90;;;;;;;19.28;47.87;101637.88;5058127;28;20037;-74
2023/05/15 04:04:14;;;;;;;1999.90;999.90;;;;;;;19.25;47.94;101637.97;5061323;28;20024;-74
2023/05/15 04:06:39;;;;;;;1999.90;999.90;;;;;;;18.62;48.90;101633.75;5051837;28;20028;-74
2023/05/15 04:09:04;;;;;;;1999.90;999.90;;;;;;;18.52;50.31;101636.72;5067934;28;20028;-73
2023/05/15 04:11:30;;;;;;;1999.90;999.90;;;;;;;18.42;49.78;101626.44;5062511;28;20013;-74
2023/05/15 04:13:56;;;;;;;1999.90;999.90;;;;;;;19.23;48.19;101618.59;5047740;28;20140;-74
2023/05/15 04:16:21;;;;;;;1999.90;999.90;;;;;;;19.04;49.07;101624.53;5050033;28;20025;-74
2023/05/15 04:18:46;;;;;;;1999.90;999.90;;;;;;;19.32;48.67;101619.16;5058248;28;20028;-74
2023/05/15 04:21:12;;;;;;;1999.90;999.90;;;;;;;19.67;47.48;101629.44;5066691;28;20040;-74
2023/05/15 04:23:38;;;;;;;1999.90;999.90;;;;;;;19.04;49.19;101613.94;5062791;28;20166;-74
2023/05/15 04:26:04;;;;;;;1999.90;999.90;;;;;;;20.16;46.76;101610.91;5057271;28;20028;-74
2023/05/15 04:28:30;;;;;;;1999.90;999.90;;;;;;;20.22;45.96;101609.78;5057862;28;20040;-74
2023/05/15 04:30:57;;;;;;;1999.90;999.90;;;;;;;19.33;48.22;101614.75;5069376;28;20380;-74
2023/05/15 04:33:22;;;;;;;1999.90;999.90;;;;;;;19.87;47.73;101615.50;5068027;28;20027;-73
2023/05/15 04:35:48;;;;;;;1999.90;999.90;;;;;;;19.26;49.17;101613.19;5063058;28;20480;-74
2023/05/15 04:38:13;;;;;;;1999.90;999.90;;;;;;;20.22;47.29;101609.78;5052999;28;20048;-74
2023/05/15 04:40:38;;;;;;;1999.90;999.90;;;;;;;19.35;48.85;101620.84;5067199;28;20429;-74
2023/05/15 04:43:04;;;;;;;1999.90;999.90;;;;;;;20.12;48.31;101615.44;5068053;28;20020;-74
2023/05/15 04:45:30;;;;;;;1999.90;999.90;;;;;;;19.95;46.98;101621.38;5058002;28;20471;-74
2023/05/15 04:47:55;;;;;;;1999.90;999.90;;;;;;;20.28;47.93;101609.56;5054233;28;20330;-74
2023/05/15 04:50:21;;;;;;;1999.90;999.90;;;;;;;20.08;47.81;101611.19;5048657;28;20033;-74
2023/05/15 04:52:46;;;;;;;1999.90;999.90;;;;;;;21.22;45.32;101612.91;5057839;28;20039;-74
2023/05/15 04:55:11;;;;;;;1999.90;999.90;;;;;;;21.02;45.46;101611.97;5053263;28;20110;-74
2023/05/15 04:57:37;;;;;;;1999.90;999.90;;;;;;;19.88;48.01;101608.41;5048642;28;20127;-74
2023/05/15 05:00:10;;;;;;;1999.90;999.90;;;;;;;19.54;48.48;101613.09;5055302;28;20035;-74
2023/05/15 05:02:37;;;;;;;1999.90;999.90;;;;;;;19.55;50.03;101619.25;5066277;28;20056;-74
2023/05/15 05:05:02;;;;;;;1999.90;999.90;;;;;;;19.78;48.26;101614.03;5056362;28;20033;-74
2023/05/15 05:07:28;;;;;;;1999.90;999.90;;;;;;;18.55;50.64;101620.78;5048027;28;20032;-74
2023/05/15 05:09:53;;;;;;;1999.90;999.90;;;;;;;18.36;51.86;101615.19;5064263;28;20033;-73
2023/05/15 05:12:19;;;;;;;1999.90;999.90;;;;;;;18.12;52.81;101615.84;5047696;28;20017;-74
2023/05/15 05:14:44;;;;;;;1999.90;999.90;;;;;;;19.30;49.76;101612.16;5051266;28;20032;-74
2023/05/15 05:17:09;;;;;;;1999.90;999.90;;;;;;;18.52;51.17;101610.25;5067006;28;20028;-74
2023/05/15 05:19:35;;;;;;;1999.90;999.90;;;;;;;19.07;50.38;101616.47;5056817;28;20027;-75
2023/05/15 05:22:03;;;;;;;1999.90;999.90;;;;;;;18.91;50.70;101609.94;5068911;28;20025;-74
2023/05/15 05:24:30;;;;;;;1999.90;999.90;;;;;;;18.42;51.97;101614.97;5055556;28;20021;-73
2023/05/15 05:26:57;;;;;;;1999.90;999.90;;;;;;;19.92;48.10;101607.38;5053641;28;20038;-73
2023/05/15 05:29:23;;;;;;;1999.90;999.90;;;;;;;19.65;49.01;101604.78;5063544;28;20028;-73
2023/05/15 05:31:48;;;;;;;1999.90;999.90;;;;;;;18.89;49.18;101603.81;5059673;28;20021;-73
2023/05/15 05:34:13;;;;;;;1999.90;999.90;;;;;;;20.21;47.66;101602.75;5065047;28;20053;-73
2023/05/15 05:36:39;;;;;;;1999.90;999.90;;;;;;;19.88;48.61;101611.06;5059977;28;20020;-73
2023/05/15 05:39:04;;;;;;;1999.90;999.90;;;;;;;20.60;46.83;101604.78;5053449;28;20024;-73
2023/05/15 05:41:29;;;;;;;1999.90;999.90;;;;;;;19.81;48.12;101602.44;5063742;28;20029;-72
2023/05/15 05:43:55;;;;;;;1999.90;999.90;;;;;;;20.82;45.94;101605.66;5053057;28;20392;-75
2023/05/15 05:46:20;;;;;;;1999.90;999.90;;;;;;;20.68;46.73;101608.03;5063459;28;20020;-75
2023/05/15 05:48:46;;;;;;;1999.90;999.90;;;;;;;21.19;45.46;101609.44;5071488;28;20025;-74
2023/05/15 05:51:11;;;;;;;1999.90;999.90;;;;;;;22.36;43.65;101603.41;5060263;28;20047;-74
2023/05/15 05:53:36;;;;;;;1999.90;999.90;;;;;;;19.80;48.66;101608.69;5053888;28;20058;-74
2023/05/15 05:56:02;;;;;;;1999.90;999.90;;;;;;;21.96;44.41;101599.06;5067365;28;20040;-75
2023/05/15 05:58:27;;;;;;;1999.90;999.90;;;;;;;21.66;44.48;101612.81;5063042;28;20104;-74
2023/05/15 06:00:53;;;;;;;1999.90;999.90;;;;;;;20.82;46.33;101600.34;5068469;28;20032;-74
2023/05/15 06:03:19;;;;;;;1999.90;999.90;;;;;;;21.70;44.28;101593.13;5051778;28;20021;-74
2023/05/15 06:05:45;;;;;;;1999.90;999.90;;;;;;;20.70;45.79;101605.31;5068311;28;20500;-75
2023/05/15 06:08:10;;;;;;;1999.90;999.90;;;;;;;21.75;43.69;101596.44;5071422;28;20035;-75
2023/05/15 06:10:36;;;;;;;1999.90;999.90;;;;;;;21.44;43.96;101603.06;5065897;28;20029;-74
2023/05/15 06:13:01;;;;;;;1999.90;999.90;;;;;;;21.84;44.07;101606.69;5052999;28;20040;-73
2023/05/15 06:15:27;;;;;;;1999.90;999.90;;;;;;;22.16;42.63;101599.00;5050516;28;20024;-74
2023/05/15 06:17:52;;;;;;;1999.90;999.90;;;;;;;22.53;41.72;101599.94;5069494;28;20039;-75
2023/05/15 06:20:18;;;;;;;1999.90;999.90;;;;;;;22.66;42.56;101599.34;5064050;28;20031;-74
2023/05/15 06:22:43;;;;;;;1999.90;999.90;;;;;;;23.15;41.18;101586.25;5067170;28;20028;-74
2023/05/15 06:25:13;;;;;;;1999.90;999.90;;;;;;;22.60;41.13;101591.63;5070331;28;20559;-74
2023/05/15 06:27:39;;;;;;;1999.90;999.90;;;;;;;22.99;41.11;101583.47;5064942;28;20802;-73
2023/05/15 06:30:06;;;;;;;1999.90;999.90;;;;;;;22.46;41.90;101598.53;5067929;28;20086;-74
2023/05/15 06:32:32;;;;;;;1999.90;999.90;;;;;;;22.46;42.01;101590.53;5053052;28;20025;-74
2023/05/15 06:34:58;;;;;;;1999.90;999.90;;;;;;;22.79;41.68;101589.81;5070351;28;20020;-75
2023/05/15 06:37:23;;;;;;;1999.90;999.90;;;;;;;20.62;45.36;101598.50;5062526;28;20403;-74
2023/05/15 06:39:49;;;;;;;1999.90;999.90;;;;;;;20.75;45.51;101592.72;5068241;28;20064;-74
2023/05/15 06:42:14;;;;;;;1999.90;999.90;;;;;;;22.61;42.65;101588.03;5068461;28;20082;-74
2023/05/15 06:44:40;;;;;;;1999.90;999.90;;;;;;;22.61;42.08;101591.56;5068265;28;20035;-74
2023/05/15 06:47:05;;;;;;;1999.90;999.90;;;;;;;23.81;40.09;101583.72;5064433;28;20028;-74
2023/05/15 06:49:31;;;;;;;1999.90;999.90;;;;;;;23.49;40.26;101588.97;5051518;28;20048;-75
2023/05/15 06:51:56;;;;;;;1999.90;999.90;;;;;;;23.39;40.31;101593.94;5051231;28;20024;-75
2023/05/15 06:54:21;;;;;;;1999.90;999.90;;;;;;;24.18;39.26;101582.59;5061240;28;20028;-74
2023/05/15 06:56:47;;;;;;;1999.90;999.90;;;;;;;24.29;39.26;101589.16;5057569;28;20052;-75
2023/05/15 06:59:12;;;;;;;1999.90;999.90;;;;;;;24.31;39.00;101587.25;5053892;28;20112;-75
2023/05/15 07:01:38;;;;;;;1999.90;999.90;;;;;;;25.29;36.99;101590.53;5050368;28;20029;-75
2023/05/15 07:04:05;;;;;;;24.23;21.90;;;;;;;25.01;37.86;101597.53;5049556;28;20583;-75
2023/05/15 07:06:31;;;;;;;23.55;21.23;;;;;;;25.18;37.35;101605.44;5061183;28;20023;-74
2023/05/15 07:08:58;;;;;;;21.48;19.63;;;;;;;25.09;36.66;101600.63;5064003;28;20045;-75
2023/05/15 07:11:23;;;;;;;22.08;20.00;;;;;;;23.79;39.72;101607.81;5068688;28;20288;-75
2023/05/15 07:13:49;;;;;;;22.73;20.50;;;;;;;23.59;39.89;101600.00;5055584;28;20507;-75
2023/05/15 07:16:15;;;;;;;23.30;21.10;;;;;;;23.63;40.30;101609.59;5050867;28;20031;-75
2023/05/15 07:18:40;;;;;;;22.17;20.17;;;;;;;24.61;38.29;101605.19;5049712;28;20028;-75
2023/05/15 07:21:05;;;;;;;22.67;20.58;;;;;;;23.42;40.41;101603.59;5083270;28;20491;-74
2023/05/15 07:23:31;;;;;;;22.58;20.55;;;;;;;24.67;38.58;101604.84;5070017;28;20029;-74
2023/05/15 07:25:56;;;;;;;23.05;20.90;;;;;;;24.42;38.77;101600.03;5069448;28;20068;-75
2023/05/15 07:28:21;;;;;;;22.13;19.92;;;;;;;23.19;41.03;101597.63;5061434;28;20028;-75
2023/05/15 07:30:47;;;;;;;24.23;20.90;;;;;;;24.70;38.70;101602.88;5057873;28;20038;-76
2023/05/15 07:33:12;;;;;;;22.95;21.02;;;;;;;25.14;37.72;101603.00;5069460;28;20029;-75
2023/05/15 07:35:38;;;;;;;21.73;19.88;;;;;;;24.73;37.94;101601.84;5049717;28;20469;-75
2023/05/15 07:38:07;;;;;;;20.52;18.65;;;;;;;24.69;38.44;101602.97;5051439;28;20491;-74
2023/05/15 07:40:32;;;;;;;21.75;19.80;;;;;;;25.18;37.45;101613.47;5056045;28;20029;-75
2023/05/15 07:42:58;;;;;;;23.20;20.90;;;;;;;24.18;39.03;101617.31;5053457;28;20029;-72
2023/05/15 07:45:24;;;;;;;20.95;19.05;;;;;;;23.88;39.66;101611.84;5063680;28;20670;-75
2023/05/15 07:47:49;;;;;;;23.27;21.25;;;;;;;22.72;41.74;101620.34;5063829;28;20032;-72
2023/05/15 07:50:15;;;;;;;21.88;19.85;;;;;;;22.96;42.63;101614.78;5058875;28;20033;-74
2023/05/15 07:52:41;;;;;;;22.20;19.92;;;;;;;24.18;39.56;101609.31;5055868;28;20028;-75
2023/05/15 07:55:08;;;;;;;22.65;20.38;;;;;;;22.76;42.14;101611.25;5059363;28;20040;-72
2023/05/15 07:57:33;;;;;;;22.80;20.58;;;;;;;23.66;40.84;101614.78;5067795;28;20137;-75
2023/05/15 08:00:01;;;;;;;22.58;20.55;;;;;;;24.35;39.22;101611.03;5064655;28;20491;-75
2023/05/15 08:02:26;;;;;;;22.15;19.98;;;;;;;24.14;39.24;101618.44;5069789;28;20025;-75
2023/05/15 08:04:51;;;;;;;21.48;19.58;;;;;;;23.58;40.78;101620.50;5062526;28;20086;-76
2023/05/15 08:07:17;;;;;;;23.02;20.92;;;;;;;23.63;40.91;101626.47;5047912;28;20040;-75
2023/05/15 08:09:42;;;;;;;23.77;21.55;;;;;;;21.92;43.52;101624.94;5055340;28;20120;-75
2023/05/15 08:12:16;;;;;;;23.23;21.23;;;;;;;23.07;42.33;101622.19;5067450;28;20058;-74
2023/05/15 08:14:42;;;;;;;23.48;21.27;;;;;;;23.44;41.12;101626.56;5057605;28;20028;-72
2023/05/15 08:17:07;;;;;;;21.92;20.05;;;;;;;23.87;39.82;101621.63;5049608;28;20037;-75
2023/05/15 08:19:32;;;;;;;25.67;23.15;;;;;;;23.03;42.86;101624.19;5052354;28;20055;-75
2023/05/15 08:21:58;;;;;;;25.27;22.60;;;;;;;23.20;42.29;101621.56;5050976;28;20039;-75
2023/05/15 08:24:23;;;;;;;26.60;23.73;;;;;;;23.14;41.30;101616.53;5048134;28;20303;-75
2023/05/15 08:26:49;;;;;;;27.00;24.20;;;;;;;22.93;43.17;101612.22;5049728;28;20050;-75
2023/05/15 08:29:15;;;;;;;26.13;23.40;;;;;;;22.18;44.77;101621.06;5047902;28;20094;-75
2023/05/15 08:31:40;;;;;;;25.95;23.23;;;;;;;22.95;43.31;101610.38;5052122;28;20146;-75
2023/05/15 08:34:06;;;;;;;27.65;23.60;;;;;;;22.95;43.09;101610.38;5067122;28;20032;-74
2023/05/15 08:36:32;;;;;;;26.80;23.50;;;;;;;23.35;42.61;101613.69;5053219;28;20028;-75
2023/05/15 08:38:57;;;;;;;25.63;22.92;;;;;;;23.86;40.88;101614.59;5048484;28;20037;-74
2023/05/15 08:41:39;;;;;;;30.08;25.58;;;;;;;22.64;43.83;101612.75;5054644;28;20028;-75
2023/05/15 08:44:07;;;;;;;26.60;23.65;;;;;;;23.03;42.51;101608.19;5066874;28;20067;-74
2023/05/15 08:46:34;;;;;;;27.63;24.63;;;;;;;23.39;42.43;101609.94;5053262;28;20028;-75
2023/05/15 08:49:08;;;;;;;27.40;24.33;;;;;;;22.23;44.45;101620.00;5056930;28;20396;-74
2023/05/15 08:51:33;;;;;;;27.17;24.40;;;;;;;22.17;45.24;101624.69;5052776;28;20032;-75
2023/05/15 08:53:59;;;;;;;29.27;26.13;;;;;;;22.22;45.23;101620.97;5069756;28;20036;-75
2023/05/15 08:56:25;;;;;;;25.90;23.23;;;;;;;22.64;44.17;101617.19;5067852;28;20056;-75
2023/05/15 08:58:51;;;;;;;28.17;24.55;;;;;;;23.79;42.02;101613.16;5059265;28;20107;-75
2023/05/15 09:01:16;;;;;;;29.50;25.73;;;;;;;23.08;43.30;101622.16;5068273;28;20036;-75
2023/05/15 09:03:41;;;;;;;32.25;25.88;;;;;;;22.94;43.90;101627.28;5061178;28;20405;-76
2023/05/15 09:06:07;;;;;;;28.88;24.83;;;;;;;22.87;43.65;101630.28;5063382;28;20119;-75
2023/05/15 09:08:34;;;;;;;30.83;26.38;;;;;;;22.97;43.65;101620.03;5063731;28;20036;-75
2023/05/15 09:11:03;;;;;;;27.67;24.48;;;;;;;23.13;43.33;101630.78;5064715;28;20040;-75
2023/05/15 09:13:29;;;;;;;31.13;27.45;;;;;;;22.42;44.42;101638.66;5051289;28;20090;-72
2023/05/15 09:15:55;;;;;;;30.27;25.38;;;;;;;21.21;47.96;101635.97;5070879;28;20115;-71
2023/05/15 09:18:20;;;;;;;31.63;25.77;;;;;;;22.02;46.33;101625.38;5057326;28;20171;-75
2023/05/15 09:20:46;;;;;;;28.10;24.95;;;;;;;22.44;44.85;101637.66;5070436;28;20033;-73
2023/05/15 09:23:23;;;;;;;36.20;27.52;;;;;;;22.94;44.17;101640.63;5062740;28;20043;-74
2023/05/15 09:25:52;;;;;;;31.05;26.83;;;;;;;22.48;45.20;101633.91;5064247;28;20372;-66
2023/05/15 09:28:27;;;;;;;1999.90;999.90;;;;;;;22.56;46.21;101630.03;5063112;28;20073;-66
2023/05/15 09:30:58;;;;;;;1999.90;999.90;;;;;;;22.75;45.00;101636.22;5051671;28;20107;-66
2023/05/15 09:33:41;;;;;;;1999.90;999.90;;;;;;;21.66;46.72;101640.25;5056801;28;20849;-68
2023/05/15 09:36:08;;;;;;;1999.90;999.90;;;;;;;22.36;45.77;101637.16;5071710;28;20522;-68
2023/05/15 09:38:46;;;;;;;1999.90;999.90;;;;;;;22.52;46.06;101639.97;5057580;28;20515;-67
2023/05/15 09:41:12;;;;;;;1999.90;999.90;;;;;;;21.91;46.32;101638.31;5066087;28;20340;-66
2023/05/15 09:43:39;;;;;;;1999.90;999.90;;;;;;;22.86;44.66;101633.88;5069012;28;20028;-65
2023/05/15 09:46:05;;;;;;;1999.90;999.90;;;;;;;22.40;45.33;101636.09;5066294;28;20025;-66
2023/05/15 09:48:31;;;;;;;1999.90;999.90;;;;;;;22.02;46.08;101630.69;5061142;28;20066;-65
2023/05/15 09:50:57;;;;;;;1999.90;999.90;;;;;;;23.57;43.36;101632.13;5064774;28;20052;-66
2023/05/15 09:53:23;;;;;;;1999.90;999.90;;;;;;;22.99;44.78;101627.94;5059326;28;20028;-65
2023/05/15 09:55:48;;;;;;;1999.90;999.90;;;;;;;23.99;42.19;101625.47;5066067;28;20037;-66
2023/05/15 09:58:16;;;;;;;1999.90;999.90;;;;;;;24.98;40.70;101632.50;5062636;28;20031;-66
2023/05/15 10:00:43;;;;;;;1999.90;999.90;;;;;;;23.59;42.65;101629.38;5079136;28;20035;-66
2023/05/15 10:03:09;;;;;;;1999.90;999.90;;;;;;;24.40;42.17;101640.19;5059202;28;20266;-65
2023/05/15 10:05:35;;;;;;;1999.90;999.90;;;;;;;23.62;43.23;101637.22;5051442;28;20017;-65
2023/05/15 10:08:01;;;;;;;32.90;24.38;;;;;;;23.89;42.95;101632.25;5051364;28;20020;-66
2023/05/15 10:10:28;;;;;;;32.05;26.13;;;;;;;23.41;42.70;101640.06;5053571;28;20021;-66
2023/05/15 10:12:57;;;;;;;29.08;23.98;;;;;;;23.45;42.71;101641.63;5048594;28;20132;-66
2023/05/15 10:15:23;;;;;;;27.30;23.45;;;;;;;23.87;42.18;101648.31;5053593;28;20029;-65
2023/05/15 10:17:49;;;;;;;30.15;24.45;;;;;;;23.43;42.27;101638.19;5052131;28;20040;-65
2023/05/15 10:20:17;;;;;;;27.58;23.92;;;;;;;23.72;41.90;101649.13;5051994;28;20031;-66
2023/05/15 10:22:50;;;;;;;30.13;24.45;;;;;;;24.00;41.71;101647.69;5064963;28;20036;-65
2023/05/15 10:25:44;;;;;;;29.23;25.25;;;;;;;22.33;45.35;101653.25;5067395;28;20028;-67
2023/05/15 10:28:10;;;;;;;26.80;24.00;;;;;;;22.55;44.70;101649.63;5068806;28;20017;-65
2023/05/15 10:30:37;;;;;;;28.23;23.80;;;;;;;23.91;41.74;101648.19;5066415;28;20049;-67
2023/05/15 10:33:06;;;;;;;28.92;25.88;;;;;;;23.82;42.27;101650.38;5060738;28;20852;-66
2023/05/15 10:35:33;;;;;;;28.15;25.17;;;;;;;23.51;42.08;101651.97;5049768;28;20025;-66
2023/05/15 10:38:00;;;;;;;26.55;23.00;;;;;;;22.12;44.81;101648.00;5064695;28;20139;-65
2023/05/15 10:40:27;;;;;;;26.58;23.83;;;;;;;23.27;43.46;101647.91;5064406;28;20033;-66
2023/05/15 10:42:54;;;;;;;24.70;22.40;;;;;;;22.78;44.06;101652.03;5050589;28;20029;-66
2023/05/15 10:45:20;;;;;;;27.13;24.33;;;;;;;22.36;44.74;101648.66;5066236;28;20074;-66
2023/05/15 10:47:46;;;;;;;24.42;21.92;;;;;;;23.53;42.18;101639.44;5055930;28;20028;-66
2023/05/15 10:50:12;;;;;;;22.88;20.90;;;;;;;21.65;45.91;101653.63;5049740;28;20028;-65
2023/05/15 10:52:38;;;;;;;24.05;21.75;;;;;;;23.00;42.92;101648.31;5056539;28;20021;-66